createdAt,value
2022-11-06T00:01:48.584Z,10.57
2022-11-06T00:04:15.406Z,12.55
2022-11-06T00:06:48.389Z,11.73
2022-11-06T00:11:45.106Z,10.77
2022-11-06T00:14:12.512Z,11.63
2022-11-06T00:16:41.841Z,11.20
2022-11-06T00:19:09.050Z,10.90
2022-11-06T00:21:36.595Z,15.95
2022-11-06T00:24:05.584Z,16.50
2022-11-06T00:26:33.735Z,11.48
2022-11-06T00:29:01.545Z,12.43
2022-11-06T00:31:31.845Z,10.45
2022-11-06T00:34:00.485Z,17.83
2022-11-06T00:36:30.479Z,9.98
2022-11-06T00:38:58.634Z,9.23
2022-11-06T00:41:26.079Z,8.30
2022-11-06T00:43:56.384Z,11.63
2022-11-06T00:46:23.498Z,12.57
2022-11-06T00:48:50.822Z,11.00
2022-11-06T00:51:23.974Z,11.45
2022-11-06T00:53:58.548Z,8.95
2022-11-06T00:56:25.863Z,9.68
2022-11-06T00:58:53.501Z,11.85
2022-11-06T01:01:25.857Z,11.38
2022-11-06T01:04:19.981Z,8.55
2022-11-06T01:06:49.916Z,9.02
2022-11-06T01:09:19.638Z,12.45
2022-11-06T01:14:39.162Z,9.10
2022-11-06T01:17:05.930Z,9.75
2022-11-06T01:19:32.957Z,13.02
2022-11-06T01:21:59.765Z,11.75
2022-11-06T01:24:28.294Z,13.75
2022-11-06T01:29:42.848Z,6.13
2022-11-06T01:32:10.258Z,17.55
2022-11-06T01:34:37.125Z,12.70
2022-11-06T01:37:04.433Z,10.68
2022-11-06T01:39:31.608Z,8.55
2022-11-06T01:41:58.723Z,8.07
2022-11-06T01:44:43.685Z,8.93
2022-11-06T01:47:28.277Z,9.82
2022-11-06T01:50:02.976Z,15.38
2022-11-06T01:52:32.661Z,13.77
2022-11-06T01:55:11.022Z,16.52
2022-11-06T01:57:38.322Z,7.30
2022-11-06T02:00:07.023Z,11.50
2022-11-06T02:02:34.615Z,10.98
2022-11-06T02:05:01.578Z,9.88
2022-11-06T02:07:28.688Z,10.95
2022-11-06T02:09:55.570Z,8.43
2022-11-06T02:12:40.377Z,9.27
2022-11-06T02:15:32.007Z,10.32
2022-11-06T02:18:25.472Z,14.18
2022-11-06T02:23:43.080Z,11.10
2022-11-06T02:26:15.824Z,9.20
2022-11-06T02:28:58.156Z,14.15
2022-11-06T02:31:29.934Z,11.27
2022-11-06T02:34:01.373Z,10.10
2022-11-06T02:36:36.894Z,7.40
2022-11-06T02:39:07.673Z,9.63
2022-11-06T02:41:38.630Z,9.13
2022-11-06T02:44:09.734Z,10.32
2022-11-06T02:46:45.582Z,8.27
2022-11-06T02:49:55.873Z,7.22
2022-11-06T02:52:31.410Z,10.90
2022-11-06T02:55:43.819Z,10.20
2022-11-06T02:58:22.918Z,8.43
2022-11-06T03:01:14.463Z,8.88
2022-11-06T03:03:48.156Z,5.47
2022-11-06T03:06:40.265Z,12.48
2022-11-06T03:09:15.510Z,7.68
2022-11-06T03:11:42.416Z,8.50
2022-11-06T03:14:15.132Z,8.38
2022-11-06T03:16:50.563Z,8.60
2022-11-06T03:19:54.574Z,13.20
2022-11-06T03:22:37.941Z,10.32
2022-11-06T03:25:29.383Z,9.82
2022-11-06T03:27:59.038Z,11.95
2022-11-06T03:30:26.170Z,8.85
2022-11-06T03:33:02.921Z,8.05
2022-11-06T03:35:49.842Z,11.45
2022-11-06T03:38:25.583Z,9.27
2022-11-06T03:40:58.466Z,6.63
2022-11-06T03:43:30.377Z,8.75
2022-11-06T03:45:59.422Z,11.70
2022-11-06T03:48:30.537Z,8.93
2022-11-06T03:51:05.059Z,7.85
2022-11-06T03:53:42.349Z,9.75
2022-11-06T03:56:16.327Z,17.70
2022-11-06T03:58:47.969Z,9.65
2022-11-06T04:01:19.634Z,8.10
2022-11-06T04:03:58.138Z,7.72
2022-11-06T04:06:40.603Z,9.60
2022-11-06T04:09:29.058Z,13.73
2022-11-06T04:12:17.960Z,10.73
2022-11-06T04:14:50.387Z,7.05
2022-11-06T04:17:18.906Z,14.50
2022-11-06T04:19:53.212Z,10.38
2022-11-06T04:22:58.390Z,11.00
2022-11-06T04:25:52.542Z,6.38
2022-11-06T04:28:46.210Z,14.45
2022-11-06T04:31:18.900Z,11.00
2022-11-06T04:34:20.965Z,10.80
2022-11-06T04:37:18.475Z,12.95
2022-11-06T04:39:52.351Z,7.80
2022-11-06T04:42:25.395Z,9.32
2022-11-06T04:47:22.856Z,10.65
2022-11-06T04:49:52.422Z,9.48
2022-11-06T04:52:23.778Z,9.57
2022-11-06T04:54:51.154Z,8.57
2022-11-06T04:57:18.000Z,13.55
2022-11-06T04:59:44.951Z,10.13
2022-11-06T05:02:11.830Z,12.65
2022-11-06T05:04:38.904Z,6.47
2022-11-06T05:07:05.817Z,9.70
2022-11-06T05:09:32.706Z,10.23
2022-11-06T05:11:59.591Z,12.95
2022-11-06T05:14:26.366Z,7.70
2022-11-06T05:16:53.114Z,13.57
2022-11-06T05:19:19.907Z,8.07
2022-11-06T05:22:05.407Z,11.05
2022-11-06T05:24:32.209Z,8.02
2022-11-06T05:26:59.786Z,16.23
2022-11-06T05:29:27.094Z,7.45
2022-11-06T05:31:56.932Z,10.18
2022-11-06T05:34:23.855Z,13.63
2022-11-06T05:36:50.626Z,10.55
2022-11-06T05:39:17.574Z,9.95
2022-11-06T05:41:44.558Z,15.50
2022-11-06T05:44:11.609Z,9.55
2022-11-06T05:46:53.588Z,10.35
2022-11-06T05:49:20.357Z,11.50
2022-11-06T05:51:47.370Z,11.65
2022-11-06T05:54:15.069Z,10.00
2022-11-06T05:56:41.864Z,7.32
2022-11-06T05:59:08.732Z,13.10
2022-11-06T06:01:36.064Z,10.27
2022-11-06T06:04:03.007Z,7.28
2022-11-06T06:06:30.138Z,13.65
2022-11-06T06:08:56.999Z,6.35
2022-11-06T06:11:23.890Z,12.52
2022-11-06T06:13:51.701Z,8.00
2022-11-06T06:16:18.504Z,13.30
2022-11-06T06:18:45.473Z,11.65
2022-11-06T06:21:12.232Z,8.95
2022-11-06T06:23:39.188Z,9.07
2022-11-06T06:26:06.344Z,11.13
2022-11-06T06:28:33.440Z,10.45
2022-11-06T06:31:04.338Z,10.80
2022-11-06T06:33:31.328Z,8.75
2022-11-06T06:35:58.156Z,11.63
2022-11-06T06:38:26.363Z,10.02
2022-11-06T06:40:54.173Z,11.82
2022-11-06T06:43:21.799Z,17.45
2022-11-06T06:45:48.573Z,13.15
2022-11-06T06:48:15.730Z,7.78
2022-11-06T06:50:42.651Z,9.90
2022-11-06T06:53:09.388Z,7.88
2022-11-06T06:55:36.246Z,10.80
2022-11-06T06:58:03.175Z,14.65
2022-11-06T07:00:30.147Z,10.95
2022-11-06T07:02:57.024Z,8.40
2022-11-06T07:05:24.334Z,9.70
2022-11-06T07:07:51.217Z,9.02
2022-11-06T07:10:19.148Z,10.15
2022-11-06T07:12:47.426Z,10.80
2022-11-06T07:15:14.472Z,10.80
2022-11-06T07:17:41.688Z,14.55
2022-11-06T07:20:09.461Z,11.77
2022-11-06T07:22:37.623Z,11.70
2022-11-06T07:25:05.919Z,7.68
2022-11-06T07:27:35.751Z,11.40
2022-11-06T07:30:02.772Z,12.52
2022-11-06T07:32:30.241Z,15.93
2022-11-06T07:34:56.970Z,17.95
2022-11-06T07:37:24.011Z,13.63
2022-11-06T07:39:57.098Z,9.40
2022-11-06T07:42:23.868Z,11.95
2022-11-06T07:44:54.253Z,12.13
2022-11-06T07:47:21.785Z,8.32
2022-11-06T07:49:51.061Z,12.55
2022-11-06T07:52:18.421Z,11.68
2022-11-06T07:54:46.479Z,12.15
2022-11-06T07:57:13.400Z,13.40
2022-11-06T07:59:40.142Z,12.13
2022-11-06T08:02:14.870Z,14.80
2022-11-06T08:04:41.730Z,16.02
2022-11-06T08:07:08.551Z,17.60
2022-11-06T08:09:35.385Z,10.90
2022-11-06T08:12:02.539Z,18.15
2022-11-06T08:14:29.345Z,14.63
2022-11-06T08:16:57.353Z,10.93
2022-11-06T08:19:24.132Z,10.52
2022-11-06T08:21:50.900Z,12.52
2022-11-06T08:24:21.688Z,9.75
2022-11-06T08:26:49.296Z,12.93
2022-11-06T08:29:16.285Z,9.45
2022-11-06T08:31:43.353Z,16.08
2022-11-06T08:34:10.201Z,12.15
2022-11-06T08:36:49.249Z,10.07
2022-11-06T08:39:16.890Z,10.00
2022-11-06T08:41:45.022Z,13.32
2022-11-06T08:44:13.272Z,12.80
2022-11-06T08:46:40.134Z,13.52
2022-11-06T08:49:06.954Z,11.40
2022-11-06T08:51:33.715Z,14.02
2022-11-06T08:54:00.645Z,18.23
2022-11-06T08:56:27.721Z,11.75
2022-11-06T08:58:55.883Z,10.98
2022-11-06T09:01:24.286Z,15.15
2022-11-06T09:03:51.183Z,10.50
2022-11-06T09:06:18.231Z,16.40
2022-11-06T09:08:45.019Z,12.93
2022-11-06T09:11:13.033Z,12.15
2022-11-06T09:13:39.951Z,12.18
2022-11-06T09:16:11.312Z,10.45
2022-11-06T09:18:41.493Z,13.32
2022-11-06T09:21:08.943Z,10.45
2022-11-06T09:23:35.989Z,13.63
2022-11-06T09:26:02.800Z,12.65
2022-11-06T09:28:29.673Z,9.80
2022-11-06T09:30:56.443Z,13.98
2022-11-06T09:33:23.338Z,12.07
2022-11-06T09:35:50.174Z,13.77
2022-11-06T09:38:17.111Z,9.20
2022-11-06T09:40:58.598Z,9.93
2022-11-06T09:44:03.087Z,10.75
2022-11-06T09:46:33.602Z,12.20
2022-11-06T09:49:12.778Z,11.00
2022-11-06T09:51:54.483Z,13.20
2022-11-06T09:54:41.692Z,10.48
2022-11-06T09:57:21.074Z,15.02
2022-11-06T09:59:49.059Z,7.78
2022-11-06T10:02:31.111Z,10.05
2022-11-06T10:05:25.944Z,8.57
2022-11-06T10:07:58.371Z,9.13
2022-11-06T10:10:41.703Z,8.02
2022-11-06T10:13:23.456Z,13.40
2022-11-06T10:16:26.665Z,7.82
2022-11-06T10:19:05.475Z,12.85
2022-11-06T10:22:04.287Z,10.57
2022-11-06T10:24:39.880Z,9.00
2022-11-06T10:27:17.420Z,10.38
2022-11-06T10:30:06.537Z,9.20
2022-11-06T10:32:58.384Z,9.23
2022-11-06T10:35:31.340Z,13.70
2022-11-06T10:40:46.489Z,11.75
2022-11-06T10:43:24.888Z,10.77
2022-11-06T10:46:02.293Z,9.68
2022-11-06T10:48:41.546Z,9.88
2022-11-06T10:51:35.024Z,6.47
2022-11-06T10:54:26.110Z,12.23
2022-11-06T10:57:24.227Z,8.73
2022-11-06T10:59:51.701Z,10.07
2022-11-06T11:02:45.361Z,6.55
2022-11-06T11:05:18.432Z,7.72
2022-11-06T11:10:24.836Z,7.97
2022-11-06T11:12:54.099Z,10.55
2022-11-06T11:15:26.341Z,10.45
2022-11-06T11:18:17.603Z,12.20
2022-11-06T11:21:03.706Z,11.00
2022-11-06T11:23:30.741Z,7.05
2022-11-06T11:26:13.801Z,7.15
2022-11-06T11:28:41.279Z,15.23
2022-11-06T11:31:12.259Z,8.75
2022-11-06T11:33:51.415Z,12.07
2022-11-06T11:36:18.296Z,13.70
2022-11-06T11:38:46.311Z,7.72
2022-11-06T11:41:19.389Z,12.52
2022-11-06T11:46:23.490Z,7.40
2022-11-06T11:48:58.437Z,8.15
2022-11-06T11:51:44.595Z,9.45
2022-11-06T11:54:14.132Z,8.35
2022-11-06T11:57:05.299Z,8.98
2022-11-06T11:59:44.769Z,9.35
2022-11-06T12:02:36.419Z,5.65
2022-11-06T12:05:14.310Z,14.30
2022-11-06T12:07:57.118Z,8.35
2022-11-06T12:10:44.094Z,7.22
2022-11-06T12:13:17.748Z,8.15
2022-11-06T12:15:57.628Z,7.28
2022-11-06T12:18:41.052Z,4.97
2022-11-06T12:21:17.361Z,6.30
2022-11-06T12:23:51.745Z,4.97
2022-11-06T12:26:33.621Z,7.15
2022-11-06T12:29:11.617Z,6.22
2022-11-06T12:31:41.036Z,4.88
2022-11-06T12:34:17.513Z,5.97
2022-11-06T12:36:51.380Z,7.13
2022-11-06T12:39:25.791Z,6.93
2022-11-06T12:41:56.782Z,5.32
2022-11-06T12:44:23.826Z,8.57
2022-11-06T12:47:25.303Z,4.15
2022-11-06T12:49:53.110Z,9.60
2022-11-06T12:52:29.396Z,4.85
2022-11-06T12:55:14.216Z,6.85
2022-11-06T12:57:59.286Z,8.68
2022-11-06T13:00:51.264Z,5.43
2022-11-06T13:03:50.260Z,11.57
2022-11-06T13:06:46.904Z,4.35
2022-11-06T13:09:37.678Z,4.18
2022-11-06T13:12:16.609Z,5.93
2022-11-06T13:15:28.258Z,5.63
2022-11-06T13:18:01.812Z,5.53
2022-11-06T13:20:38.388Z,5.68
2022-11-06T13:23:37.574Z,4.78
2022-11-06T13:26:12.443Z,6.57
2022-11-06T13:28:56.977Z,4.53
2022-11-06T13:31:34.088Z,2.95
2022-11-06T13:34:03.186Z,8.65
2022-11-06T13:36:31.641Z,4.70
2022-11-06T13:39:19.875Z,6.43
2022-11-06T13:41:46.654Z,4.82
2022-11-06T13:44:16.528Z,4.03
2022-11-06T13:46:53.754Z,2.25
2022-11-06T13:49:23.806Z,4.90
2022-11-06T13:52:21.392Z,5.65
2022-11-06T13:55:21.645Z,4.72
2022-11-06T13:58:13.451Z,4.43
2022-11-06T14:00:49.093Z,3.72
2022-11-06T14:04:04.434Z,4.25
2022-11-06T14:06:36.411Z,3.75
2022-11-06T14:09:11.448Z,3.60
2022-11-06T14:11:43.955Z,4.38
2022-11-06T14:14:32.931Z,3.55
2022-11-06T14:17:17.892Z,3.25
2022-11-06T14:19:51.228Z,4.65
2022-11-06T14:22:26.549Z,3.70
2022-11-06T14:24:58.453Z,1.60
2022-11-06T14:27:28.792Z,3.17
2022-11-06T14:30:18.169Z,4.32
2022-11-06T14:32:47.619Z,4.18
2022-11-06T14:35:29.539Z,3.53
2022-11-06T14:38:34.182Z,2.67
2022-11-06T14:41:01.858Z,7.38
2022-11-06T14:43:34.353Z,4.07
2022-11-06T14:46:16.196Z,3.40
2022-11-06T14:48:52.053Z,4.10
2022-11-06T14:51:26.901Z,3.38
2022-11-06T14:54:02.832Z,3.50
2022-11-06T14:56:32.665Z,3.20
2022-11-06T14:59:27.559Z,5.63
2022-11-06T15:02:42.549Z,3.22
2022-11-06T15:05:17.789Z,5.95
2022-11-06T15:08:04.552Z,4.10
2022-11-06T15:10:43.643Z,3.65
2022-11-06T15:13:18.445Z,5.45
2022-11-06T15:15:49.189Z,4.03
2022-11-06T15:18:25.179Z,3.65
2022-11-06T15:21:01.838Z,2.67
2022-11-06T15:23:39.189Z,4.03
2022-11-06T15:26:22.193Z,5.03
2022-11-06T15:29:01.319Z,4.85
2022-11-06T15:31:30.021Z,2.97
2022-11-06T15:34:06.343Z,3.70
2022-11-06T15:36:40.618Z,9.52
2022-11-06T15:39:57.500Z,7.70
2022-11-06T15:42:34.566Z,4.90
2022-11-06T15:45:30.989Z,6.38
2022-11-06T15:48:20.016Z,4.60
2022-11-06T15:50:47.090Z,2.03
2022-11-06T15:53:14.282Z,4.05
2022-11-06T15:55:44.358Z,3.50
2022-11-06T15:58:33.084Z,5.32
2022-11-06T16:01:01.614Z,4.55
2022-11-06T16:03:43.351Z,6.78
2022-11-06T16:06:10.847Z,4.63
2022-11-06T16:08:38.623Z,4.78
2022-11-06T16:11:12.221Z,3.08
2022-11-06T16:13:41.959Z,5.68
2022-11-06T16:16:34.888Z,10.15
2022-11-06T16:19:07.463Z,4.88
2022-11-06T16:21:36.716Z,5.90
2022-11-06T16:24:16.180Z,8.48
2022-11-06T16:26:51.490Z,8.55
2022-11-06T16:29:26.889Z,12.57
2022-11-06T16:32:21.961Z,6.43
2022-11-06T16:34:49.436Z,6.78
2022-11-06T16:37:16.155Z,8.40
2022-11-06T16:39:54.272Z,6.28
2022-11-06T16:42:39.112Z,10.32
2022-11-06T16:45:09.217Z,7.43
2022-11-06T16:47:36.293Z,7.95
2022-11-06T16:50:06.099Z,5.10
2022-11-06T16:52:39.121Z,8.65
2022-11-06T16:57:49.958Z,6.45
2022-11-06T17:00:19.460Z,7.55
2022-11-06T17:03:19.542Z,10.40
2022-11-06T17:05:57.915Z,7.75
2022-11-06T17:08:36.611Z,8.93
2022-11-06T17:11:12.526Z,6.53
2022-11-06T17:13:42.920Z,7.60
2022-11-06T17:16:21.863Z,6.10
2022-11-06T17:18:49.181Z,8.77
2022-11-06T17:21:19.109Z,6.95
2022-11-06T17:23:47.433Z,8.50
2022-11-06T17:26:23.358Z,8.95
2022-11-06T17:28:50.668Z,6.85
2022-11-06T17:31:20.769Z,7.07
2022-11-06T17:33:48.477Z,12.98
2022-11-06T17:36:26.360Z,7.18
2022-11-06T17:38:55.248Z,6.70
2022-11-06T17:41:35.145Z,8.30
2022-11-06T17:44:03.368Z,9.80
2022-11-06T17:46:50.790Z,8.68
2022-11-06T17:49:18.808Z,7.38
2022-11-06T17:51:58.103Z,7.95
2022-11-06T17:54:27.256Z,10.98
2022-11-06T17:56:55.890Z,9.63
2022-11-06T17:59:24.040Z,9.02
2022-11-06T18:01:51.813Z,10.25
2022-11-06T18:04:20.510Z,8.70
2022-11-06T18:06:49.027Z,8.60
2022-11-06T18:09:16.112Z,7.45
2022-11-06T18:11:43.346Z,7.43
2022-11-06T18:14:11.144Z,8.38
2022-11-06T18:16:43.658Z,7.97
2022-11-06T18:19:14.440Z,8.20
2022-11-06T18:21:41.457Z,10.70
2022-11-06T18:24:08.350Z,6.38
2022-11-06T18:26:37.572Z,7.57
2022-11-06T18:29:05.795Z,6.72
2022-11-06T18:31:33.061Z,7.43
2022-11-06T18:34:00.680Z,6.32
2022-11-06T18:36:27.467Z,8.27
2022-11-06T18:38:54.314Z,9.27
2022-11-06T18:41:22.409Z,4.97
2022-11-06T18:43:49.865Z,5.95
2022-11-06T18:46:18.586Z,8.68
2022-11-06T18:48:45.608Z,8.63
2022-11-06T18:51:32.427Z,5.85
2022-11-06T18:54:04.530Z,6.47
2022-11-06T18:56:32.149Z,5.95
2022-11-06T18:59:00.936Z,4.05
2022-11-06T19:01:29.747Z,4.38
2022-11-06T19:03:57.075Z,4.45
2022-11-06T19:06:23.951Z,5.65
2022-11-06T19:08:50.892Z,3.15
2022-11-06T19:11:19.154Z,4.95
2022-11-06T19:13:48.170Z,4.97
2022-11-06T19:16:16.372Z,5.50
2022-11-06T19:18:43.309Z,4.75
2022-11-06T19:21:11.619Z,4.68
2022-11-06T19:23:41.024Z,4.20
2022-11-06T19:29:00.976Z,4.28
2022-11-06T19:31:29.573Z,3.78
2022-11-06T19:34:00.469Z,3.95
2022-11-06T19:36:28.268Z,5.97
2022-11-06T19:38:57.278Z,5.47
2022-11-06T19:41:28.639Z,5.72
2022-11-06T19:43:55.718Z,4.90
2022-11-06T19:46:26.946Z,10.65
2022-11-06T19:48:56.675Z,5.20
2022-11-06T19:51:24.566Z,4.82
2022-11-06T19:53:55.019Z,4.50
2022-11-06T19:56:22.954Z,9.45
2022-11-06T19:58:50.711Z,4.32
2022-11-06T20:01:18.605Z,3.50
2022-11-06T20:03:45.552Z,8.43
2022-11-06T20:06:13.447Z,6.45
2022-11-06T20:08:40.781Z,5.13
2022-11-06T20:11:12.290Z,7.35
2022-11-06T20:13:39.838Z,4.32
2022-11-06T20:16:09.393Z,5.28
2022-11-06T20:18:36.610Z,7.22
2022-11-06T20:21:06.450Z,4.38
2022-11-06T20:23:34.687Z,5.70
2022-11-06T20:26:02.291Z,7.57
2022-11-06T20:28:29.424Z,6.57
2022-11-06T20:30:57.585Z,5.75
2022-11-06T20:33:25.845Z,4.25
2022-11-06T20:35:52.666Z,7.25
2022-11-06T20:38:19.824Z,8.20
2022-11-06T20:40:48.229Z,6.78
2022-11-06T20:43:16.536Z,6.78
2022-11-06T20:45:43.552Z,12.00
2022-11-06T20:48:10.592Z,5.90
2022-11-06T20:50:37.674Z,6.25
2022-11-06T20:53:04.566Z,8.68
2022-11-06T20:55:31.538Z,6.80
2022-11-06T20:57:58.371Z,10.18
2022-11-06T21:00:25.211Z,7.07
2022-11-06T21:02:53.543Z,7.13
2022-11-06T21:05:23.278Z,5.15
2022-11-06T21:07:50.142Z,6.47
2022-11-06T21:10:17.070Z,9.55
2022-11-06T21:12:44.123Z,6.75
2022-11-06T21:15:10.948Z,8.10
2022-11-06T21:17:42.557Z,5.90
2022-11-06T21:20:10.903Z,7.05
2022-11-06T21:22:37.670Z,6.95
2022-11-06T21:25:04.665Z,7.93
2022-11-06T21:27:31.512Z,8.65
2022-11-06T21:29:58.321Z,5.13
2022-11-06T21:32:25.251Z,7.10
2022-11-06T21:34:52.078Z,5.70
2022-11-06T21:37:19.111Z,7.88
2022-11-06T21:39:46.859Z,8.10
2022-11-06T21:42:13.683Z,8.00
2022-11-06T21:44:40.492Z,5.43
2022-11-06T21:47:07.345Z,6.03
2022-11-06T21:49:34.101Z,6.25
2022-11-06T21:52:23.972Z,10.73
2022-11-06T21:55:13.375Z,5.35
2022-11-06T21:57:40.173Z,5.55
2022-11-06T22:00:09.169Z,6.30
2022-11-06T22:02:37.597Z,7.10
2022-11-06T22:05:04.839Z,5.78
2022-11-06T22:07:31.661Z,5.93
2022-11-06T22:09:58.513Z,8.63
2022-11-06T22:12:25.265Z,8.43
2022-11-06T22:14:52.237Z,7.18
2022-11-06T22:17:19.136Z,4.90
2022-11-06T22:19:45.919Z,4.80
2022-11-06T22:22:12.848Z,5.00
2022-11-06T22:24:39.678Z,5.47
2022-11-06T22:27:06.562Z,7.18
2022-11-06T22:29:33.328Z,3.92
2022-11-06T22:32:00.221Z,7.38
2022-11-06T22:34:27.086Z,6.25
2022-11-06T22:36:53.888Z,3.45
2022-11-06T22:39:20.704Z,3.38
2022-11-06T22:41:47.476Z,4.47
2022-11-06T22:44:14.420Z,4.53
2022-11-06T22:46:41.526Z,7.10
2022-11-06T22:49:08.678Z,5.25
2022-11-06T22:51:36.033Z,2.35
2022-11-06T22:54:03.976Z,3.47
2022-11-06T22:56:31.835Z,2.85
2022-11-06T22:59:01.278Z,3.35
2022-11-06T23:01:31.008Z,4.72
2022-11-06T23:04:02.136Z,4.18
2022-11-06T23:06:29.743Z,6.57
2022-11-06T23:08:56.597Z,2.13
2022-11-06T23:11:25.348Z,2.72
2022-11-06T23:13:53.047Z,3.60
2022-11-06T23:16:42.768Z,3.22
2022-11-06T23:19:11.405Z,4.45
2022-11-06T23:21:38.581Z,2.13
2022-11-06T23:24:06.307Z,4.03
2022-11-06T23:26:33.332Z,4.40
2022-11-06T23:29:00.321Z,2.15
2022-11-06T23:31:27.247Z,3.08
2022-11-06T23:33:55.474Z,2.65
2022-11-06T23:36:22.400Z,3.50
2022-11-06T23:38:52.516Z,5.05
2022-11-06T23:41:38.722Z,2.85
2022-11-06T23:44:05.749Z,3.00
2022-11-06T23:46:33.402Z,5.47
2022-11-06T23:49:00.453Z,4.78
2022-11-06T23:51:27.786Z,2.50
2022-11-06T23:53:54.686Z,6.38
2022-11-06T23:56:21.511Z,2.53
2022-11-06T23:58:48.277Z,2.17
